M I D A S
Marine Information and Data Acquisition System
Tripno 987 of the Zeeleeuw from 2005-11-24 10:02:20 to 2005-11-24 11:46:52
Back to CruiseResearch ActivitiesStationsMapUnderway DataData graphs

EquipmentUnitsComment
TimeDGPSUTC
LatitudeDGPSDM.mWGS84
LongitudeDGPSDM.mWGS84
HeadingGyrodeg 
SOGDGPSknotsSpeed over ground
COGDGPSdegCourse over ground
DepthEcho soundermeters200 kHz
Missing or incorrect values are displayed as -999
Navigation data collected by the RV Zeeleeuw from 2005-11-24 06:05:56 to 2005-11-24 12:00:24
                                                                                    Next 1000 lines
Time Latitude Longitude Heading SOG COG Depth
2005-11-24 06:06:04 51°13.6 2°56.095 127.7 0.2 150 8.3
2005-11-24 06:06:10 51°13.599 2°56.095 128.4 0.1 224 -999
2005-11-24 06:06:16 51°13.599 2°56.095 128.9 0.1 216 -999
2005-11-24 06:06:20 51°13.599 2°56.095 129.2 -999 189 -999
2005-11-24 06:06:26 51°13.599 2°56.094 129.6 -999 268 -999
2005-11-24 06:06:31 51°13.599 2°56.094 129.6 -999 185 -999
2005-11-24 06:06:35 51°13.599 2°56.095 129.6 -999 58 -999
2005-11-24 06:06:40 51°13.599 2°56.094 129.5 -999 196 -999
2005-11-24 06:06:46 51°13.599 2°56.094 129.4 -999 277 -999
2005-11-24 06:06:50 51°13.599 2°56.094 129.4 -999 135 -999
2005-11-24 06:06:56 51°13.598 2°56.094 129.4 -999 233 -999
2005-11-24 06:07:00 51°13.598 2°56.094 129.4 -999 290 -999
2005-11-24 06:07:06 51°13.598 2°56.094 129.4 -999 191 -999
2005-11-24 06:07:11 51°13.598 2°56.094 129.4 -999 144 -999
2005-11-24 06:07:16 51°13.598 2°56.094 129.4 -999 271 -999
2005-11-24 06:07:20 51°13.598 2°56.094 129.4 -999 248 -999
2005-11-24 06:07:26 51°13.598 2°56.094 129.4 -999 269 -999
2005-11-24 06:07:31 51°13.598 2°56.094 129.4 -999 159 8.6
2005-11-24 06:07:36 51°13.598 2°56.094 129.4 -999 281 -999
2005-11-24 06:07:40 51°13.598 2°56.094 129.4 -999 277 -999
2005-11-24 06:07:46 51°13.598 2°56.094 129.4 0.1 292 -999
2005-11-24 06:07:50 51°13.598 2°56.094 129.4 -999 262 -999
2005-11-24 06:07:56 51°13.598 2°56.094 129.4 -999 208 -999
2005-11-24 06:08:00 51°13.599 2°56.094 129.4 -999 221 -999
2005-11-24 06:08:06 51°13.599 2°56.094 129.4 -999 216 -999
2005-11-24 06:08:10 51°13.599 2°56.094 129.4 -999 68 -999
2005-11-24 06:08:15 51°13.599 2°56.094 129.1 0.1 73 -999
2005-11-24 06:08:21 51°13.599 2°56.094 128.6 0.1 111 -999
2005-11-24 06:08:26 51°13.599 2°56.094 127.9 -999 45 -999
2005-11-24 06:08:31 51°13.599 2°56.095 127.5 -999 2 -999
2005-11-24 06:08:36 51°13.599 2°56.095 127.1 -999 140 -999
2005-11-24 06:08:40 51°13.599 2°56.095 127 -999 151 -999
2005-11-24 06:08:46 51°13.599 2°56.095 127 -999 271 -999
2005-11-24 06:08:50 51°13.599 2°56.095 127 -999 136 -999
2005-11-24 06:08:56 51°13.598 2°56.095 127.1 -999 201 -999
2005-11-24 06:09:00 51°13.598 2°56.095 127.2 -999 227 -999
2005-11-24 06:09:06 51°13.598 2°56.095 127.4 -999 259 -999
2005-11-24 06:09:11 51°13.599 2°56.095 127.6 -999 161 -999
2005-11-24 06:09:16 51°13.599 2°56.094 127.7 -999 126 -999
2005-11-24 06:09:20 51°13.599 2°56.095 127.7 -999 95 -999
2005-11-24 06:09:26 51°13.599 2°56.095 127.7 -999 99 -999
2005-11-24 06:09:31 51°13.598 2°56.095 127.5 -999 286 -999
2005-11-24 06:09:36 51°13.598 2°56.095 127.2 -999 282 -999
2005-11-24 06:09:40 51°13.598 2°56.095 127.1 -999 268 -999
2005-11-24 06:09:45 51°13.598 2°56.095 127.1 -999 275 8.2
2005-11-24 06:09:51 51°13.598 2°56.094 127.2 -999 250 -999
2005-11-24 06:09:56 51°13.598 2°56.094 127.5 -999 242 -999
2005-11-24 06:10:00 51°13.598 2°56.094 127.7 -999 253 -999
2005-11-24 06:10:06 51°13.599 2°56.094 127.8 -999 288 -999
2005-11-24 06:10:11 51°13.599 2°56.094 127.9 -999 170 -999
2005-11-24 06:10:16 51°13.599 2°56.095 127.7 -999 311 8.4
2005-11-24 06:10:20 51°13.599 2°56.095 127.6 -999 88 -999
2005-11-24 06:10:25 51°13.599 2°56.095 127.3 -999 322 -999
2005-11-24 06:10:31 51°13.599 2°56.095 127 -999 301 -999
2005-11-24 06:10:36 51°13.599 2°56.095 126.9 -999 234 -999
2005-11-24 06:10:41 51°13.598 2°56.095 126.7 -999 184 -999
2005-11-24 06:10:46 51°13.599 2°56.095 126.6 -999 190 -999
2005-11-24 06:10:51 51°13.599 2°56.095 126.6 -999 268 -999
2005-11-24 06:10:55 51°13.599 2°56.095 126.6 -999 212 -999
2005-11-24 06:11:00 51°13.599 2°56.095 126.5 -999 189 -999
2005-11-24 06:11:06 51°13.599 2°56.095 126.5 -999 126 -999
2005-11-24 06:11:10 51°13.599 2°56.095 126.6 0.1 91 -999
2005-11-24 06:11:15 51°13.599 2°56.095 126.6 -999 222 -999
2005-11-24 06:11:20 51°13.599 2°56.095 125.3 0.1 213 -999
2005-11-24 06:11:24 51°13.599 2°56.095 124 0.1 205 -999
2005-11-24 06:11:31 51°13.599 2°56.095 122.6 0.1 196 -999
2005-11-24 06:11:36 51°13.599 2°56.095 121.2 0.1 180 -999
2005-11-24 06:11:40 51°13.598 2°56.095 119.7 0.2 186 -999
2005-11-24 06:11:44 51°13.598 2°56.095 118.3 0.1 188 -999
2005-11-24 06:11:50 51°13.598 2°56.095 116.6 0.1 197 -999
2005-11-24 06:11:56 51°13.598 2°56.095 115.3 0.1 188 -999
2005-11-24 06:12:00 51°13.598 2°56.095 113.2 0.1 188 -999
2005-11-24 06:12:05 51°13.598 2°56.095 111.4 0.1 191 -999
2005-11-24 06:12:11 51°13.598 2°56.094 109.5 0.1 212 -999
2005-11-24 06:12:15 51°13.598 2°56.094 108.1 0.3 260 8.2
2005-11-24 06:12:20 51°13.598 2°56.091 107 0.7 275 -999
2005-11-24 06:12:25 51°13.598 2°56.089 106.3 1.1 276 8.6
2005-11-24 06:12:30 51°13.598 2°56.086 105.9 1.3 280 9.4
2005-11-24 06:12:35 51°13.599 2°56.083 105.8 1.4 278 -999
2005-11-24 06:12:40 51°13.599 2°56.08 105.9 1.5 280 10
2005-11-24 06:12:44 51°13.599 2°56.077 106.6 1.6 282 -999
2005-11-24 06:12:50 51°13.6 2°56.072 107.3 1.8 282 -999
2005-11-24 06:12:56 51°13.601 2°56.067 108.4 1.9 284 -999
2005-11-24 06:13:00 51°13.602 2°56.064 109.3 1.9 286 -999
2005-11-24 06:13:06 51°13.602 2°56.06 110.3 1.7 284 -999
2005-11-24 06:13:10 51°13.603 2°56.058 110.8 1.3 288 -999
2005-11-24 06:13:16 51°13.602 2°56.057 111.5 0.9 285 -999
2005-11-24 06:13:20 51°13.602 2°56.056 112.3 0.3 283 -999
2005-11-24 06:13:26 51°13.602 2°56.057 113.7 0.2 134 -999
2005-11-24 06:13:30 51°13.602 2°56.058 115.3 0.6 110 -999
2005-11-24 06:13:36 51°13.601 2°56.061 117.1 0.9 112 -999
2005-11-24 06:13:40 51°13.6 2°56.063 119.2 1.3 112 -999
2005-11-24 06:13:46 51°13.599 2°56.067 121.2 1.6 116 5.6
2005-11-24 06:13:50 51°13.598 2°56.07 122.6 1.9 116 10.9
2005-11-24 06:13:55 51°13.597 2°56.075 123.6 2.1 116 10.9
2005-11-24 06:14:00 51°13.596 2°56.08 124.3 2.4 118 11.1
2005-11-24 06:14:05 51°13.594 2°56.085 124.6 2.6 118 10.7
2005-11-24 06:14:10 51°13.592 2°56.091 125 2.8 120 10.5
2005-11-24 06:14:15 51°13.589 2°56.097 125.6 3.2 121 9.8
2005-11-24 06:14:20 51°13.587 2°56.103 126.1 3.4 122 9.9
2005-11-24 06:14:25 51°13.584 2°56.111 126.7 3.7 122 10.6
2005-11-24 06:14:30 51°13.581 2°56.117 127.3 3.8 124 10.7
2005-11-24 06:14:35 51°13.577 2°56.125 127.6 3.9 124 10.8
2005-11-24 06:14:40 51°13.574 2°56.132 127.7 4.1 125 10.9
2005-11-24 06:14:45 51°13.571 2°56.14 127.8 4.2 125 10.2
2005-11-24 06:14:50 51°13.567 2°56.148 128.2 4.3 126 10.8
2005-11-24 06:14:55 51°13.563 2°56.156 128.5 4.5 125 11.2
2005-11-24 06:15:00 51°13.56 2°56.165 128.5 4.6 127 11.7
2005-11-24 06:15:05 51°13.556 2°56.173 128.5 4.7 126 12.1
2005-11-24 06:15:10 51°13.552 2°56.181 128.5 4.5 126 11.3
2005-11-24 06:15:15 51°13.549 2°56.188 128.6 4 127 11.6
2005-11-24 06:15:20 51°13.546 2°56.194 128.2 3.6 126 11.6
2005-11-24 06:15:25 51°13.544 2°56.199 129.2 3.2 129 11.7
2005-11-24 06:15:30 51°13.542 2°56.203 133.6 2.8 131 12.4
2005-11-24 06:15:35 51°13.539 2°56.207 137.7 2.4 135 12.7
2005-11-24 06:15:40 51°13.538 2°56.209 143.8 1.9 138 12.4
2005-11-24 06:15:45 51°13.536 2°56.211 148.9 1.6 141 11.6
2005-11-24 06:15:50 51°13.535 2°56.212 153.8 1.2 144 11.6
2005-11-24 06:15:55 51°13.534 2°56.213 157.6 0.8 149 11.8
2005-11-24 06:16:00 51°13.534 2°56.214 162.4 0.4 141 11.9
2005-11-24 06:16:04 51°13.534 2°56.214 168.2 0.1 94 12
2005-11-24 06:16:10 51°13.534 2°56.214 172.7 0.3 3 11.9
2005-11-24 06:16:15 51°13.535 2°56.214 175.9 0.4 2 11.8
2005-11-24 06:16:20 51°13.537 2°56.214 180 0.9 356 11.6
2005-11-24 06:16:25 51°13.538 2°56.213 182.5 1.1 358 12.6
2005-11-24 06:16:30 51°13.54 2°56.214 185.2 1.3 2 5.3
2005-11-24 06:16:36 51°13.542 2°56.214 187.2 1.3 4 -999
2005-11-24 06:16:40 51°13.543 2°56.214 188.5 1.2 4 -999
2005-11-24 06:16:46 51°13.544 2°56.214 189.1 0.9 7 -999
2005-11-24 06:16:50 51°13.544 2°56.214 190.1 0.4 13 -999
2005-11-24 06:16:56 51°13.543 2°56.214 192.1 0.1 49 -999
2005-11-24 06:17:00 51°13.542 2°56.214 194.5 0.3 177 -999
2005-11-24 06:17:04 51°13.542 2°56.214 197.4 0.6 187 -999
2005-11-24 06:17:10 51°13.541 2°56.213 201 0.9 195 -999
2005-11-24 06:17:16 51°13.539 2°56.212 205.1 1.1 202 -999
2005-11-24 06:17:20 51°13.538 2°56.211 208.7 1.3 202 -999
2005-11-24 06:17:26 51°13.536 2°56.21 213.3 1.3 210 -999
2005-11-24 06:17:31 51°13.535 2°56.209 216.6 0.9 201 -999
2005-11-24 06:17:36 51°13.534 2°56.209 219.2 0.8 194 -999
2005-11-24 06:17:40 51°13.534 2°56.209 222.4 0.3 205 11.9
2005-11-24 06:17:45 51°13.534 2°56.209 224.9 0.3 181 11.7
2005-11-24 06:17:50 51°13.534 2°56.21 227 0.2 60 11.6
2005-11-24 06:17:55 51°13.535 2°56.211 229.5 0.5 64 11.6
2005-11-24 06:18:00 51°13.535 2°56.212 231.8 0.6 51 12.5
2005-11-24 06:18:05 51°13.536 2°56.214 233.9 0.9 56 12.7
2005-11-24 06:18:10 51°13.537 2°56.216 235.6 1 52 12.5
2005-11-24 06:18:15 51°13.538 2°56.218 237.2 1.2 56 -999
2005-11-24 06:18:20 51°13.539 2°56.22 238.8 1.1 54 -999
2005-11-24 06:18:26 51°13.54 2°56.221 239.9 0.8 54 -999
2005-11-24 06:18:31 51°13.54 2°56.221 240.9 0.4 51 -999
2005-11-24 06:18:36 51°13.539 2°56.22 244.1 0.5 251 -999
2005-11-24 06:18:40 51°13.539 2°56.218 248.9 1 245 82.5
2005-11-24 06:18:46 51°13.538 2°56.214 254 1.3 256 -999
2005-11-24 06:18:50 51°13.538 2°56.211 260.4 1.6 258 5.2
2005-11-24 06:18:56 51°13.538 2°56.205 266.3 1.8 264 -999
2005-11-24 06:19:00 51°13.538 2°56.202 271.8 2 270 -999
2005-11-24 06:19:06 51°13.539 2°56.196 277.4 2.2 278 -999
2005-11-24 06:19:11 51°13.54 2°56.191 283.3 2.2 281 -999
2005-11-24 06:19:15 51°13.541 2°56.188 289.1 2.2 287 12.4
2005-11-24 06:19:20 51°13.542 2°56.183 293.1 2.2 291 12
2005-11-24 06:19:24 51°13.543 2°56.18 296.1 2.2 294 12.1
2005-11-24 06:19:30 51°13.544 2°56.174 299 2.1 296 12.4
2005-11-24 06:19:35 51°13.546 2°56.17 301.2 2.1 298 12.2
2005-11-24 06:19:40 51°13.547 2°56.166 303.2 2 300 12.3
2005-11-24 06:19:45 51°13.549 2°56.162 304.1 2.1 300 11.7
2005-11-24 06:19:50 51°13.55 2°56.158 305.2 2.1 301 11.6
2005-11-24 06:19:55 51°13.552 2°56.154 305.5 2.1 301 11.9
2005-11-24 06:20:00 51°13.554 2°56.15 305.9 2 302 11.9
2005-11-24 06:20:05 51°13.555 2°56.147 306 2 302 11.8
2005-11-24 06:20:10 51°13.556 2°56.143 306.1 1.9 302 12
2005-11-24 06:20:15 51°13.557 2°56.141 306 1.7 302 11.9
2005-11-24 06:20:20 51°13.558 2°56.138 305.8 1.2 302 11.8
2005-11-24 06:20:25 51°13.559 2°56.136 305.8 1.1 302 11.9
2005-11-24 06:20:30 51°13.56 2°56.134 305.6 1.1 302 11.8
2005-11-24 06:20:35 51°13.56 2°56.132 305.1 1.1 300 12
2005-11-24 06:20:40 51°13.561 2°56.13 304.6 1 302 11.7
2005-11-24 06:20:45 51°13.562 2°56.129 304.1 1 299 11.3
2005-11-24 06:20:50 51°13.563 2°56.127 303.4 1 302 11.6
2005-11-24 06:20:55 51°13.563 2°56.125 303.1 1 300 11.7
2005-11-24 06:21:00 51°13.564 2°56.123 302.6 1.1 300 11.7
2005-11-24 06:21:05 51°13.565 2°56.12 302.3 1.1 298 11.9
2005-11-24 06:21:10 51°13.566 2°56.118 302.2 1.2 299 11.9
2005-11-24 06:21:15 51°13.567 2°56.115 302.2 1.2 298 12.2
2005-11-24 06:21:20 51°13.567 2°56.113 302.4 1.2 299 12.2
2005-11-24 06:21:25 51°13.568 2°56.111 302.6 1.2 298 12.2
2005-11-24 06:21:30 51°13.569 2°56.108 302.8 1.2 299 12.7
2005-11-24 06:21:35 51°13.57 2°56.106 303.1 1.2 299 12.1
2005-11-24 06:21:40 51°13.57 2°56.104 303.3 1.1 301 12.1
2005-11-24 06:21:45 51°13.571 2°56.102 303.6 1.1 300 12.1
2005-11-24 06:21:50 51°13.572 2°56.1 303.9 1.1 301 12.2
2005-11-24 06:21:55 51°13.573 2°56.097 304.1 1.1 301 12.1
2005-11-24 06:22:00 51°13.574 2°56.094 304.5 1.5 301 12.2
2005-11-24 06:22:05 51°13.575 2°56.091 304.8 1.6 302 12.2
2005-11-24 06:22:10 51°13.577 2°56.088 305.2 1.7 302 12.5
2005-11-24 06:22:15 51°13.578 2°56.085 305.5 1.7 303 12.8
2005-11-24 06:22:20 51°13.579 2°56.082 305.9 1.7 303 12.2
2005-11-24 06:22:25 51°13.58 2°56.079 306.2 1.6 304 12.2
2005-11-24 06:22:30 51°13.581 2°56.076 306.5 1.6 303 12.2
2005-11-24 06:22:35 51°13.583 2°56.073 306.9 1.6 304 12.2
2005-11-24 06:22:40 51°13.584 2°56.07 307 1.5 304 12.2
2005-11-24 06:22:45 51°13.585 2°56.067 307 1.5 306 12.1
2005-11-24 06:22:50 51°13.586 2°56.065 307.1 1.5 305 12.1
2005-11-24 06:22:55 51°13.587 2°56.063 307.3 1.5 306 12
2005-11-24 06:23:00 51°13.589 2°56.06 307.3 1.4 305 12
2005-11-24 06:23:05 51°13.59 2°56.058 307.4 1.4 307 11.8
2005-11-24 06:23:10 51°13.591 2°56.055 307.5 1.4 306 11.7
2005-11-24 06:23:15 51°13.592 2°56.053 307.6 1.4 307 11.9
2005-11-24 06:23:20 51°13.593 2°56.051 307.7 1.4 307 11.9
2005-11-24 06:23:25 51°13.594 2°56.048 307.8 1.3 308 11.9
2005-11-24 06:23:30 51°13.595 2°56.046 308 1.3 309 12.1
2005-11-24 06:23:35 51°13.596 2°56.044 308.2 1.3 309 12.3
2005-11-24 06:23:40 51°13.597 2°56.041 308.4 1.3 308 12.3
2005-11-24 06:23:45 51°13.599 2°56.039 308.6 1.3 311 12.4
2005-11-24 06:23:50 51°13.6 2°56.037 309 1.3 309 12.3
2005-11-24 06:23:55 51°13.601 2°56.035 309.2 1.3 310 12.2
2005-11-24 06:24:00 51°13.601 2°56.034 309.6 1 311 12.3
2005-11-24 06:24:05 51°13.602 2°56.033 310 0.8 315 12.3
2005-11-24 06:24:10 51°13.603 2°56.032 310.7 0.5 319 11.9
2005-11-24 06:24:15 51°13.603 2°56.032 311.5 0.3 328 11.9
2005-11-24 06:24:20 51°13.603 2°56.032 312 0.3 346 11.8
2005-11-24 06:24:25 51°13.604 2°56.031 312.4 0.3 344 11.5
2005-11-24 06:24:30 51°13.604 2°56.03 312.9 0.5 316 11.6
2005-11-24 06:24:35 51°13.605 2°56.029 313.2 0.6 316 11.6
2005-11-24 06:24:40 51°13.606 2°56.028 312.9 0.7 313 11.5
2005-11-24 06:24:45 51°13.606 2°56.027 312.6 0.7 318 11.5
2005-11-24 06:24:50 51°13.607 2°56.026 312.2 0.7 316 11.6
2005-11-24 06:24:55 51°13.608 2°56.025 312 0.7 318 11.8
2005-11-24 06:25:00 51°13.608 2°56.024 311.7 0.7 314 11.5
2005-11-24 06:25:05 51°13.609 2°56.023 311.7 0.7 319 11.4
2005-11-24 06:25:10 51°13.61 2°56.022 311.6 0.7 317 11.5
2005-11-24 06:25:15 51°13.611 2°56.02 311.6 0.8 317 11.4
2005-11-24 06:25:20 51°13.612 2°56.019 311.6 0.9 316 11.5
2005-11-24 06:25:25 51°13.613 2°56.017 311.5 1 316 11.5
2005-11-24 06:25:30 51°13.614 2°56.015 311.2 1.2 313 11.1
2005-11-24 06:25:35 51°13.615 2°56.013 310.7 1.2 313 11.1
2005-11-24 06:25:40 51°13.617 2°56.011 310 1.3 312 11.1
2005-11-24 06:25:45 51°13.618 2°56.008 309.3 1.5 311 11.1
2005-11-24 06:25:50 51°13.619 2°56.006 308.5 1.6 310 11.1
2005-11-24 06:25:55 51°13.621 2°56.003 307.7 1.6 310 11.1
2005-11-24 06:26:00 51°13.622 2°56 307 1.6 309 11.2
2005-11-24 06:26:05 51°13.624 2°55.997 306.3 1.6 309 11.4
2005-11-24 06:26:10 51°13.625 2°55.994 305.8 1.7 307 10.8
2005-11-24 06:26:15 51°13.627 2°55.991 305.3 1.7 306 11.3
2005-11-24 06:26:20 51°13.628 2°55.988 304.9 1.8 307 11.3
2005-11-24 06:26:25 51°13.63 2°55.985 304.6 1.9 306 11.2
2005-11-24 06:26:30 51°13.631 2°55.981 304.2 2 305 11.3
2005-11-24 06:26:35 51°13.633 2°55.977 304 2 305 11
2005-11-24 06:26:40 51°13.635 2°55.973 303.7 2.2 303 11.2
2005-11-24 06:26:45 51°13.636 2°55.969 303.3 2.3 303 11.3
2005-11-24 06:26:50 51°13.638 2°55.964 302.7 2.5 301 11.2
2005-11-24 06:26:55 51°13.64 2°55.959 302.2 2.5 300 11
2005-11-24 06:27:00 51°13.642 2°55.953 301.9 2.7 299 11.1
2005-11-24 06:27:05 51°13.644 2°55.947 301.5 2.8 298 10.6
2005-11-24 06:27:10 51°13.645 2°55.942 301.3 3 297 10.5
2005-11-24 06:27:15 51°13.647 2°55.935 301.2 3.1 297 10.9
2005-11-24 06:27:20 51°13.65 2°55.928 301.4 3.5 297 10.8
2005-11-24 06:27:25 51°13.652 2°55.921 302.6 3.7 299 11
2005-11-24 06:27:30 51°13.655 2°55.913 303.9 4.1 299 11
2005-11-24 06:27:35 51°13.658 2°55.905 305.3 4.2 300 11.1
2005-11-24 06:27:40 51°13.662 2°55.896 306.5 4.6 301 10.8
2005-11-24 06:27:45 51°13.665 2°55.887 307 4.7 302 10.6
2005-11-24 06:27:50 51°13.669 2°55.877 307.1 5 300 10.5
2005-11-24 06:27:55 51°13.673 2°55.867 307.6 5.1 301 11
2005-11-24 06:28:00 51°13.677 2°55.857 308.2 5.3 301 10.7
2005-11-24 06:28:05 51°13.681 2°55.847 309 5.4 303 10.4
2005-11-24 06:28:10 51°13.685 2°55.837 310.3 5.6 305 10.3
2005-11-24 06:28:15 51°13.69 2°55.827 312 5.6 305 10.5
2005-11-24 06:28:20 51°13.695 2°55.816 313.7 5.8 307 11
2005-11-24 06:28:25 51°13.7 2°55.806 314.7 5.9 307 12.4
2005-11-24 06:28:30 51°13.705 2°55.796 315 6 307 13.3
2005-11-24 06:28:35 51°13.71 2°55.785 315 6 308 14.9
2005-11-24 06:28:40 51°13.716 2°55.775 315.5 6.1 310 14.4
2005-11-24 06:28:45 51°13.721 2°55.765 316.7 6.1 311 14.2
2005-11-24 06:28:50 51°13.727 2°55.756 318.3 6 314 13.4
2005-11-24 06:28:55 51°13.733 2°55.746 319.9 6 315 12.4
2005-11-24 06:29:00 51°13.739 2°55.738 320.8 5.9 317 11.4
2005-11-24 06:29:05 51°13.745 2°55.729 321.1 5.8 317 11.3
2005-11-24 06:29:10 51°13.751 2°55.721 321.3 5.7 318 11.1
2005-11-24 06:29:15 51°13.757 2°55.712 322 5.7 319 10.6
2005-11-24 06:29:20 51°13.763 2°55.704 323.3 5.6 321 11.6
2005-11-24 06:29:25 51°13.769 2°55.697 325 5.6 322 10.9
2005-11-24 06:29:30 51°13.775 2°55.689 325.9 5.6 322 11.5
2005-11-24 06:29:35 51°13.782 2°55.682 326.4 5.6 323 11.5
2005-11-24 06:29:40 51°13.788 2°55.674 326.5 5.8 321 11.2
2005-11-24 06:29:45 51°13.794 2°55.665 326.5 5.9 321 11.5
2005-11-24 06:29:50 51°13.801 2°55.658 326.7 6 322 11.8
2005-11-24 06:29:55 51°13.808 2°55.65 328.4 6 324 11.8
2005-11-24 06:30:00 51°13.815 2°55.642 331 6.1 326 12
2005-11-24 06:30:05 51°13.822 2°55.635 333.5 6.1 328 12
2005-11-24 06:30:10 51°13.829 2°55.628 334.6 6.2 328 12
2005-11-24 06:30:15 51°13.837 2°55.621 335.2 6.2 328 11.9
2005-11-24 06:30:20 51°13.844 2°55.614 335.7 6.2 329 12.4
2005-11-24 06:30:25 51°13.852 2°55.607 337.1 6.2 330 11.9
2005-11-24 06:30:30 51°13.86 2°55.602 339.4 6.3 334 11.4
2005-11-24 06:30:35 51°13.868 2°55.597 341.1 6.3 336 12
2005-11-24 06:30:40 51°13.876 2°55.592 342.4 6.3 337 11.8
2005-11-24 06:30:45 51°13.885 2°55.586 342.8 6.3 337 12
2005-11-24 06:30:50 51°13.893 2°55.581 342.9 6.4 337 11.4
2005-11-24 06:30:55 51°13.901 2°55.575 342.7 6.5 338 11.7
2005-11-24 06:31:00 51°13.91 2°55.57 342.9 6.6 338 12.1
2005-11-24 06:31:05 51°13.918 2°55.564 343.2 6.6 338 13.1
2005-11-24 06:31:10 51°13.927 2°55.558 343.3 6.7 337 12.7
2005-11-24 06:31:16 51°13.937 2°55.551 342.8 6.7 337 12.6
2005-11-24 06:31:20 51°13.944 2°55.547 342.5 6.8 337 12.3
2005-11-24 06:31:25 51°13.953 2°55.541 342.5 6.8 338 12
2005-11-24 06:31:30 51°13.962 2°55.536 343.3 6.8 339 11.9
2005-11-24 06:31:35 51°13.971 2°55.53 344 6.9 339 11.9
2005-11-24 06:31:40 51°13.98 2°55.524 343.9 7 339 11.8
2005-11-24 06:31:45 51°13.989 2°55.518 343.6 7.1 338 12.5
2005-11-24 06:31:50 51°13.998 2°55.512 343.4 7.1 338 12.2
2005-11-24 06:31:56 51°14.008 2°55.506 343.5 7.1 338 12.2
2005-11-24 06:32:00 51°14.016 2°55.501 344 7.1 339 12.3
2005-11-24 06:32:05 51°14.025 2°55.495 344.2 7.2 339 12.2
2005-11-24 06:32:10 51°14.035 2°55.489 343.9 7.3 338 12
2005-11-24 06:32:15 51°14.044 2°55.483 343.6 7.4 338 11.6
2005-11-24 06:32:20 51°14.054 2°55.476 343.7 7.6 337 11.5
2005-11-24 06:32:25 51°14.064 2°55.469 343.3 7.7 337 12.1
2005-11-24 06:32:30 51°14.074 2°55.463 342.7 7.8 336 12.3
2005-11-24 06:32:35 51°14.084 2°55.457 343.4 7.8 336 12.7
2005-11-24 06:32:40 51°14.094 2°55.45 343.9 7.9 337 12.1
2005-11-24 06:32:45 51°14.105 2°55.443 343.1 8 337 12.6
2005-11-24 06:32:50 51°14.115 2°55.436 341.8 8 336 12.5
2005-11-24 06:32:56 51°14.127 2°55.426 341 8.1 336 12.8
2005-11-24 06:33:00 51°14.135 2°55.42 340 8.1 336 12.2
2005-11-24 06:33:05 51°14.145 2°55.412 339 8.1 334 12.6
2005-11-24 06:33:10 51°14.155 2°55.404 337.9 8.1 331 -999
2005-11-24 06:33:15 51°14.164 2°55.395 336.3 8.1 330 5.2
2005-11-24 06:33:20 51°14.174 2°55.385 334.7 8.1 328 12.7
2005-11-24 06:33:24 51°14.181 2°55.377 333.1 8 327 12.4
2005-11-24 06:33:30 51°14.193 2°55.365 331.6 8 325 12.3
2005-11-24 06:33:35 51°14.202 2°55.354 330.3 8 324 13.1
2005-11-24 06:33:40 51°14.21 2°55.343 328.4 8 322 12.3
2005-11-24 06:33:45 51°14.219 2°55.332 327.4 8 322 12.6
2005-11-24 06:33:50 51°14.227 2°55.321 326.6 8.1 321 5
2005-11-24 06:33:55 51°14.236 2°55.309 326.2 8.1 321 12.8
2005-11-24 06:34:00 51°14.245 2°55.296 325.1 8.6 318 13.2
2005-11-24 06:34:05 51°14.254 2°55.282 322.9 8.8 316 12.4
2005-11-24 06:34:10 51°14.263 2°55.269 321.4 8.9 316 12.4
2005-11-24 06:34:15 51°14.271 2°55.254 320.8 9.1 315 12.2
2005-11-24 06:34:20 51°14.28 2°55.239 319.2 9.2 313 12.4
2005-11-24 06:34:25 51°14.289 2°55.223 317.1 9.3 311 12.6
2005-11-24 06:34:30 51°14.297 2°55.206 315.1 9.4 309 12.5
2005-11-24 06:34:35 51°14.305 2°55.19 313.7 9.6 307 12.3
2005-11-24 06:34:40 51°14.312 2°55.172 312.3 9.6 306 12.2
2005-11-24 06:34:45 51°14.32 2°55.155 311 9.6 305 12.6
2005-11-24 06:34:50 51°14.327 2°55.137 309.8 9.7 304 12.1
2005-11-24 06:34:55 51°14.335 2°55.119 309 9.7 304 12.1
2005-11-24 06:35:00 51°14.342 2°55.101 309 9.8 304 12
2005-11-24 06:35:05 51°14.349 2°55.084 309.5 9.7 304 12.7
2005-11-24 06:35:10 51°14.357 2°55.066 310 9.8 305 12.2
2005-11-24 06:35:16 51°14.367 2°55.044 310.1 10 304 12.3
2005-11-24 06:35:20 51°14.373 2°55.03 310.8 10.1 306 12.1
2005-11-24 06:35:25 51°14.382 2°55.012 311.8 10.3 307 12.2
2005-11-24 06:35:30 51°14.391 2°54.994 312.8 10.3 307 12.1
2005-11-24 06:35:35 51°14.401 2°54.976 314.6 10.6 310 12.1
2005-11-24 06:35:40 51°14.411 2°54.958 316.3 10.7 312 -999
2005-11-24 06:35:45 51°14.422 2°54.942 317.1 10.9 315 12.1
2005-11-24 06:35:50 51°14.433 2°54.926 319 10.9 318 12.1
2005-11-24 06:35:55 51°14.445 2°54.909 320.1 11 319 12.1
2005-11-24 06:36:00 51°14.456 2°54.893 320 11.1 317 12
2005-11-24 06:36:04 51°14.465 2°54.879 318.9 11.2 316 12
2005-11-24 06:36:10 51°14.478 2°54.857 317.2 11.3 315 11.9
2005-11-24 06:36:15 51°14.489 2°54.838 315.6 11.4 313 11.8
2005-11-24 06:36:20 51°14.499 2°54.818 313.4 11.6 311 11.7
2005-11-24 06:36:25 51°14.509 2°54.797 311.3 11.8 308 11.7
2005-11-24 06:36:30 51°14.519 2°54.776 309.4 11.9 307 11.7
2005-11-24 06:36:35 51°14.529 2°54.754 308.4 12.1 305 11.6
2005-11-24 06:36:40 51°14.538 2°54.732 307 12.2 304 11.6
2005-11-24 06:36:45 51°14.548 2°54.709 306.3 12.3 305 11.7
2005-11-24 06:36:50 51°14.557 2°54.687 306.2 12.3 304 11.7
2005-11-24 06:36:55 51°14.567 2°54.665 305.8 12.3 304 11.6
2005-11-24 06:37:00 51°14.576 2°54.642 305.6 12.4 304 11.6
2005-11-24 06:37:05 51°14.586 2°54.619 305.5 12.4 304 11.5
2005-11-24 06:37:10 51°14.596 2°54.597 306.1 12.4 305 11.6
2005-11-24 06:37:15 51°14.606 2°54.574 306.4 12.4 305 11.6
2005-11-24 06:37:20 51°14.615 2°54.551 306.1 12.4 303 11.6
2005-11-24 06:37:25 51°14.625 2°54.528 305 12.4 303 11.6
2005-11-24 06:37:30 51°14.634 2°54.505 304.3 12.4 303 11.6
2005-11-24 06:37:35 51°14.642 2°54.481 303.6 12.4 301 11.6
2005-11-24 06:37:40 51°14.651 2°54.458 303.1 12.4 301 11.6
2005-11-24 06:37:45 51°14.66 2°54.434 302.7 12.4 301 11.6
2005-11-24 06:37:50 51°14.67 2°54.411 302.9 12.4 302 11.6
2005-11-24 06:37:55 51°14.679 2°54.387 303.1 12.4 302 11.6
2005-11-24 06:38:00 51°14.688 2°54.364 303.3 12.4 302 11.6
2005-11-24 06:38:05 51°14.697 2°54.341 303.5 12.4 302 11.5
2005-11-24 06:38:10 51°14.706 2°54.317 303.5 12.4 302 11.5
2005-11-24 06:38:15 51°14.715 2°54.293 302.6 12.4 301 11.6
2005-11-24 06:38:20 51°14.723 2°54.269 301.9 12.4 300 11.5
2005-11-24 06:38:25 51°14.732 2°54.246 301.1 12.4 299 11.5
2005-11-24 06:38:30 51°14.74 2°54.222 300.5 12.4 299 11.5
2005-11-24 06:38:35 51°14.748 2°54.198 300.2 12.4 299 11.5
2005-11-24 06:38:40 51°14.757 2°54.174 300.4 12.4 299 11.4
2005-11-24 06:38:45 51°14.765 2°54.15 300.4 12.4 299 11.4
2005-11-24 06:38:50 51°14.774 2°54.126 300.6 12.4 300 11.4
2005-11-24 06:38:55 51°14.782 2°54.102 300.6 12.4 300 11.4
2005-11-24 06:39:00 51°14.791 2°54.079 301.1 12.4 300 11.3
2005-11-24 06:39:04 51°14.798 2°54.059 301.3 12.4 300 11.3
2005-11-24 06:39:10 51°14.808 2°54.031 301.2 12.4 299 11.2
2005-11-24 06:39:15 51°14.816 2°54.006 301.1 12.5 299 11.2
2005-11-24 06:39:20 51°14.824 2°53.982 300.4 12.5 298 11.1
2005-11-24 06:39:25 51°14.832 2°53.958 300.3 12.5 298 11.1
2005-11-24 06:39:30 51°14.84 2°53.933 300.3 12.5 298 11.1
2005-11-24 06:39:35 51°14.849 2°53.909 300.8 12.5 299 11.1
2005-11-24 06:39:40 51°14.857 2°53.885 301.1 12.6 299 11.1
2005-11-24 06:39:45 51°14.866 2°53.86 301.3 12.6 299 11
2005-11-24 06:39:50 51°14.874 2°53.836 301.4 12.6 299 11
2005-11-24 06:39:55 51°14.883 2°53.811 301.6 12.6 299 11
2005-11-24 06:40:00 51°14.891 2°53.787 301.4 12.6 299 11.1
2005-11-24 06:40:05 51°14.9 2°53.763 301.2 12.6 299 11.1
2005-11-24 06:40:10 51°14.908 2°53.738 301.2 12.7 299 11
2005-11-24 06:40:15 51°14.917 2°53.714 301.2 12.7 299 11
2005-11-24 06:40:20 51°14.925 2°53.69 301.2 12.6 299 11
2005-11-24 06:40:25 51°14.934 2°53.665 301.2 12.6 300 11
2005-11-24 06:40:30 51°14.943 2°53.641 301.3 12.6 300 11.1
2005-11-24 06:40:35 51°14.951 2°53.617 301.7 12.6 300 11.1
2005-11-24 06:40:40 51°14.96 2°53.593 301.8 12.6 299 11.2
2005-11-24 06:40:45 51°14.967 2°53.568 301 12.6 297 11.2
2005-11-24 06:40:50 51°14.975 2°53.543 299.7 12.5 297 11.2
2005-11-24 06:40:55 51°14.983 2°53.518 298.6 12.5 296 11.3
2005-11-24 06:41:00 51°14.99 2°53.493 297.9 12.5 295 11.3
2005-11-24 06:41:05 51°14.998 2°53.468 297.6 12.6 295 11.4
2005-11-24 06:41:10 51°15.005 2°53.443 297.5 12.6 296 11.3
2005-11-24 06:41:15 51°15.013 2°53.418 297.5 12.6 295 11.3
2005-11-24 06:41:20 51°15.02 2°53.393 297.5 12.5 296 11.4
2005-11-24 06:41:25 51°15.028 2°53.368 297.6 12.5 295 11.4
2005-11-24 06:41:30 51°15.035 2°53.343 297.5 12.5 296 11.4
2005-11-24 06:41:35 51°15.043 2°53.318 297.5 12.5 295 11.5
2005-11-24 06:41:40 51°15.051 2°53.292 297.5 12.5 295 11.5
2005-11-24 06:41:45 51°15.058 2°53.267 297.5 12.5 295 11.5
2005-11-24 06:41:50 51°15.065 2°53.242 297.4 12.5 295 11.6
2005-11-24 06:41:55 51°15.073 2°53.217 297 12.5 295 11.7
2005-11-24 06:42:00 51°15.08 2°53.193 296.8 12.5 295 11.7
2005-11-24 06:42:05 51°15.087 2°53.167 296.8 12.5 295 11.7
2005-11-24 06:42:10 51°15.095 2°53.143 297 12.5 295 11.8
2005-11-24 06:42:16 51°15.104 2°53.113 297.5 12.5 296 11.7
2005-11-24 06:42:20 51°15.11 2°53.093 297.6 12.5 296 11.9
2005-11-24 06:42:25 51°15.117 2°53.068 297.7 12.5 296 11.7
2005-11-24 06:42:30 51°15.125 2°53.043 297.8 12.5 296 11.8
2005-11-24 06:42:35 51°15.133 2°53.019 298.1 12.5 296 11.9
2005-11-24 06:42:40 51°15.14 2°52.994 298.3 12.5 296 11.9
2005-11-24 06:42:45 51°15.148 2°52.969 298.3 12.5 296 12
2005-11-24 06:42:50 51°15.155 2°52.944 298 12.5 296 12
2005-11-24 06:42:55 51°15.162 2°52.919 297.8 12.5 295 12.1
2005-11-24 06:43:00 51°15.169 2°52.894 296.5 12.5 293 12.1
2005-11-24 06:43:04 51°15.175 2°52.874 295.8 12.4 293 12.2
2005-11-24 06:43:10 51°15.182 2°52.843 295.1 12.4 292 12.3
2005-11-24 06:43:15 51°15.189 2°52.818 294.5 12.4 292 12.3
2005-11-24 06:43:20 51°15.195 2°52.792 294.4 12.4 292 12.3
2005-11-24 06:43:25 51°15.202 2°52.767 294.4 12.5 293 12.3
2005-11-24 06:43:30 51°15.209 2°52.741 294.5 12.4 292 12.3
2005-11-24 06:43:35 51°15.215 2°52.716 294.6 12.5 293 12.4
2005-11-24 06:43:40 51°15.222 2°52.691 294.7 12.4 293 12.4
2005-11-24 06:43:45 51°15.228 2°52.665 294.8 12.4 292 12.4
2005-11-24 06:43:50 51°15.235 2°52.64 294.6 12.5 292 12.5
2005-11-24 06:43:55 51°15.242 2°52.614 294.6 12.4 292 12.5
2005-11-24 06:44:00 51°15.248 2°52.589 294.6 12.4 292 12.5
2005-11-24 06:44:05 51°15.255 2°52.563 294.5 12.4 292 12.6
2005-11-24 06:44:10 51°15.261 2°52.538 294.3 12.4 292 12.6
2005-11-24 06:44:15 51°15.268 2°52.512 294 12.4 292 12.6
2005-11-24 06:44:20 51°15.274 2°52.487 294.3 12.4 293 12.7
2005-11-24 06:44:25 51°15.281 2°52.462 294.6 12.4 292 12.7
2005-11-24 06:44:30 51°15.288 2°52.436 294.9 12.4 293 12.8
2005-11-24 06:44:35 51°15.294 2°52.411 295.2 12.5 293 12.9
2005-11-24 06:44:40 51°15.301 2°52.386 295.2 12.4 293 12.9
2005-11-24 06:44:44 51°15.306 2°52.365 295.1 12.4 293 13
2005-11-24 06:44:50 51°15.314 2°52.335 294.9 12.5 293 13.1
2005-11-24 06:44:55 51°15.321 2°52.31 294.8 12.5 292 13.1
2005-11-24 06:45:00 51°15.327 2°52.284 294.7 12.5 292 13.1
2005-11-24 06:45:05 51°15.334 2°52.259 294.7 12.5 292 13.1
2005-11-24 06:45:10 51°15.34 2°52.233 294.7 12.4 293 13.3
2005-11-24 06:45:15 51°15.347 2°52.208 294.8 12.5 292 13.3
2005-11-24 06:45:20 51°15.354 2°52.183 295 12.5 293 13.4
2005-11-24 06:45:25 51°15.36 2°52.157 295.2 12.5 293 13.4
2005-11-24 06:45:30 51°15.367 2°52.132 295.2 12.5 293 13.5
2005-11-24 06:45:35 51°15.374 2°52.107 295.3 12.5 293 13.5
2005-11-24 06:45:40 51°15.381 2°52.082 295.3 12.5 293 13.6
2005-11-24 06:45:45 51°15.388 2°52.056 295.3 12.4 294 13.6
2005-11-24 06:45:50 51°15.395 2°52.031 295.4 12.5 293 13.7
2005-11-24 06:45:55 51°15.401 2°52.006 295.5 12.5 293 13.7
2005-11-24 06:46:00 51°15.408 2°51.98 295.4 12.5 293 13.7
2005-11-24 06:46:05 51°15.415 2°51.955 295.3 12.5 293 13.7
2005-11-24 06:46:10 51°15.422 2°51.93 295.2 12.5 293 13.8
2005-11-24 06:46:15 51°15.429 2°51.905 295.5 12.5 294 13.8
2005-11-24 06:46:20 51°15.436 2°51.879 295.4 12.4 293 13.9
2005-11-24 06:46:25 51°15.442 2°51.854 295.2 12.5 293 13.9
2005-11-24 06:46:30 51°15.449 2°51.829 295 12.4 293 13.9
2005-11-24 06:46:35 51°15.456 2°51.803 295 12.4 294 13.9
2005-11-24 06:46:40 51°15.463 2°51.778 295.3 12.4 294 13.9
2005-11-24 06:46:45 51°15.47 2°51.753 295.4 12.4 294 13.9
2005-11-24 06:46:50 51°15.476 2°51.728 295.4 12.4 293 14
2005-11-24 06:46:55 51°15.482 2°51.702 294.2 12.4 291 14.1
2005-11-24 06:47:00 51°15.488 2°51.676 292.7 12.4 289 14
2005-11-24 06:47:05 51°15.493 2°51.65 291.3 12.4 288 14.1
2005-11-24 06:47:10 51°15.498 2°51.624 290.1 12.4 288 14.1
2005-11-24 06:47:15 51°15.503 2°51.598 289.1 12.3 286 14.1
2005-11-24 06:47:20 51°15.507 2°51.572 288.4 12.3 286 14.1
2005-11-24 06:47:25 51°15.512 2°51.546 288.1 12.4 286 14.2
2005-11-24 06:47:30 51°15.516 2°51.519 287.7 12.3 286 14.2
2005-11-24 06:47:35 51°15.521 2°51.493 287.5 12.3 286 14.2
2005-11-24 06:47:40 51°15.525 2°51.467 287.4 12.3 286 14.2
2005-11-24 06:47:45 51°15.53 2°51.441 287.4 12.3 285 14.2
2005-11-24 06:47:50 51°15.535 2°51.415 287.8 12.3 286 14.2
2005-11-24 06:47:55 51°15.54 2°51.388 288 12.3 286 14.2
2005-11-24 06:48:00 51°15.544 2°51.362 288 12.3 286 14.3
2005-11-24 06:48:04 51°15.548 2°51.341 288 12.3 286 14.4
2005-11-24 06:48:10 51°15.554 2°51.31 288 12.3 286 14.5
2005-11-24 06:48:15 51°15.558 2°51.284 287.9 12.3 286 14.4
2005-11-24 06:48:20 51°15.563 2°51.258 287.7 12.3 285 14.4
2005-11-24 06:48:25 51°15.567 2°51.231 287.6 12.3 285 14.4
2005-11-24 06:48:30 51°15.571 2°51.205 286.5 12.2 283 14.5
2005-11-24 06:48:35 51°15.574 2°51.179 285.4 12.2 283 14.5
2005-11-24 06:48:40 51°15.578 2°51.152 284.8 12.2 282 14.5
2005-11-24 06:48:45 51°15.581 2°51.126 283.4 12.2 280 14.5
2005-11-24 06:48:50 51°15.583 2°51.099 282 12.2 278 14.5
2005-11-24 06:48:55 51°15.585 2°51.072 280.9 12.2 277 14.5
2005-11-24 06:49:00 51°15.587 2°51.045 279.6 12.2 276 14.5
2005-11-24 06:49:05 51°15.589 2°51.019 278.8 12.2 276 14.5
2005-11-24 06:49:10 51°15.59 2°50.992 278.3 12.2 275 14.5
2005-11-24 06:49:15 51°15.592 2°50.965 278 12.2 276 14.5
2005-11-24 06:49:20 51°15.594 2°50.939 278.2 12.2 275 14.5
2005-11-24 06:49:25 51°15.594 2°50.912 277.6 12.2 274 14.6
2005-11-24 06:49:30 51°15.595 2°50.885 276.1 12.2 273 14.5
2005-11-24 06:49:35 51°15.596 2°50.858 274.8 12.1 272 14.5
2005-11-24 06:49:40 51°15.596 2°50.831 274.1 12.1 271 14.5
2005-11-24 06:49:45 51°15.596 2°50.805 273.7 12.1 271 14.5
2005-11-24 06:49:50 51°15.596 2°50.778 273.4 12.1 271 14.5
2005-11-24 06:49:55 51°15.597 2°50.751 273.6 12.1 271 14.6
2005-11-24 06:50:00 51°15.597 2°50.724 273.8 12.1 271 14.5
2005-11-24 06:50:05 51°15.597 2°50.697 273.8 12.1 271 14.5
2005-11-24 06:50:10 51°15.598 2°50.671 273.7 12.2 271 14.6
2005-11-24 06:50:15 51°15.598 2°50.644 273.6 12.1 271 14.7
2005-11-24 06:50:20 51°15.598 2°50.617 273.6 12.1 271 14.6
2005-11-24 06:50:25 51°15.598 2°50.59 273.6 12.1 271 14.5
2005-11-24 06:50:30 51°15.598 2°50.563 272.9 12.1 269 14.6
2005-11-24 06:50:35 51°15.597 2°50.537 271.4 12.1 268 14.6
2005-11-24 06:50:40 51°15.597 2°50.51 270.2 12.1 267 14.5
2005-11-24 06:50:45 51°15.595 2°50.483 269.2 12.1 266 14.6
2005-11-24 06:50:50 51°15.594 2°50.457 268.5 12.1 266 14.6
2005-11-24 06:50:55 51°15.592 2°50.43 268.2 12.1 265 14.6
2005-11-24 06:51:00 51°15.591 2°50.403 268.1 12.1 266 14.6
2005-11-24 06:51:04 51°15.59 2°50.382 268 12.1 265 14.5
2005-11-24 06:51:10 51°15.588 2°50.35 268.2 12.1 266 14.5
2005-11-24 06:51:16 51°15.587 2°50.318 268.4 12.1 265 14.5
2005-11-24 06:51:20 51°15.586 2°50.297 268.4 12.1 266 14.5
2005-11-24 06:51:25 51°15.585 2°50.27 268.7 12.1 266 14.5
2005-11-24 06:51:30 51°15.584 2°50.243 268.7 12.2 266 14.6
2005-11-24 06:51:35 51°15.582 2°50.216 268.8 12.1 266 14.5
2005-11-24 06:51:40 51°15.581 2°50.19 268.5 12.2 266 14.6
2005-11-24 06:51:45 51°15.58 2°50.163 268.5 12.1 266 14.6
2005-11-24 06:51:50 51°15.579 2°50.136 268.5 12.1 266 14.5
2005-11-24 06:51:55 51°15.578 2°50.109 268.8 12.1 267 14.6
2005-11-24 06:52:00 51°15.577 2°50.083 269 12.1 266 14.6
2005-11-24 06:52:05 51°15.576 2°50.056 268.8 12.1 267 14.6
2005-11-24 06:52:10 51°15.574 2°50.03 268.9 12.1 266 14.6
2005-11-24 06:52:15 51°15.574 2°50.003 269.2 12 267 14.6
2005-11-24 06:52:20 51°15.573 2°49.976 269.2 12.1 266 14.6
2005-11-24 06:52:25 51°15.572 2°49.95 269.2 12.1 267 14.7
2005-11-24 06:52:30 51°15.571 2°49.923 269.3 12 267 14.7
2005-11-24 06:52:35 51°15.57 2°49.896 268.7 12.1 266 14.6
2005-11-24 06:52:40 51°15.569 2°49.87 268.7 12.1 266 14.7
2005-11-24 06:52:45 51°15.567 2°49.843 268.8 12.1 266 14.6
2005-11-24 06:52:50 51°15.567 2°49.817 268.8 12.1 267 14.6
2005-11-24 06:52:55 51°15.565 2°49.79 269.1 12 266 14.7
2005-11-24 06:53:00 51°15.564 2°49.763 268.9 12.1 267 14.7
2005-11-24 06:53:05 51°15.563 2°49.737 269 12.1 266 14.7
2005-11-24 06:53:10 51°15.562 2°49.71 268.8 12 266 14.7
2005-11-24 06:53:16 51°15.561 2°49.679 268.8 12 266 14.6
2005-11-24 06:53:20 51°15.56 2°49.657 268.6 12.1 267 14.6
2005-11-24 06:53:25 51°15.559 2°49.631 269 12 266 14.6
2005-11-24 06:53:30 51°15.558 2°49.604 268.7 12.1 266 14.6
2005-11-24 06:53:35 51°15.557 2°49.578 269.1 12 267 14.6
2005-11-24 06:53:40 51°15.556 2°49.551 269.2 12 266 14.6
2005-11-24 06:53:45 51°15.555 2°49.525 269 12.1 267 14.6
2005-11-24 06:53:50 51°15.554 2°49.498 269 12 266 14.6
2005-11-24 06:53:55 51°15.553 2°49.472 268.9 12.1 267 14.6
2005-11-24 06:54:00 51°15.552 2°49.445 269.2 12 267 14.5
2005-11-24 06:54:04 51°15.551 2°49.424 269.3 12.1 267 14.5
2005-11-24 06:54:10 51°15.55 2°49.392 269.2 12 267 14.5
2005-11-24 06:54:15 51°15.549 2°49.365 269 12.1 266 14.4
2005-11-24 06:54:20 51°15.548 2°49.339 268.8 12 266 14.3
2005-11-24 06:54:25 51°15.547 2°49.312 268.5 12.1 267 14.3
2005-11-24 06:54:30 51°15.546 2°49.286 268.8 12 266 14.2
2005-11-24 06:54:35 51°15.545 2°49.259 269 12 267 14.1
2005-11-24 06:54:40 51°15.544 2°49.233 268.8 12 266 14
2005-11-24 06:54:45 51°15.543 2°49.206 269 12 267 13.9
2005-11-24 06:54:50 51°15.542 2°49.18 269.1 12 267 13.8
2005-11-24 06:54:55 51°15.541 2°49.153 269.2 12.1 267 13.7
2005-11-24 06:55:00 51°15.54 2°49.126 269.3 12.1 266 13.5
2005-11-24 06:55:05 51°15.539 2°49.1 269.1 12.1 267 13.5
2005-11-24 06:55:10 51°15.538 2°49.073 269.1 12.1 267 13.3
2005-11-24 06:55:15 51°15.537 2°49.046 269.2 12.1 267 13.2
2005-11-24 06:55:20 51°15.536 2°49.02 269.2 12.1 266 13.2
2005-11-24 06:55:25 51°15.536 2°48.993 269.1 12 267 13
2005-11-24 06:55:30 51°15.535 2°48.967 269.2 12.1 267 12.9
2005-11-24 06:55:35 51°15.534 2°48.94 269.3 12.1 267 12.8
2005-11-24 06:55:40 51°15.533 2°48.913 269.4 12.1 268 12.6
2005-11-24 06:55:44 51°15.532 2°48.892 269.6 12.1 267 12.5
2005-11-24 06:55:50 51°15.531 2°48.86 269.2 12.1 267 12.5
2005-11-24 06:55:55 51°15.53 2°48.834 269.2 12.1 267 12.4
2005-11-24 06:56:00 51°15.529 2°48.807 269 12.1 267 12.3
2005-11-24 06:56:04 51°15.528 2°48.786 268.7 12.1 266 12.2
2005-11-24 06:56:10 51°15.528 2°48.754 268.6 12.1 267 12.2
2005-11-24 06:56:15 51°15.527 2°48.727 268.6 12 267 12.1
2005-11-24 06:56:20 51°15.526 2°48.701 268.9 12 267 12.1
2005-11-24 06:56:25 51°15.525 2°48.674 269.1 12 266 12
2005-11-24 06:56:30 51°15.524 2°48.648 269.1 12 266 12
2005-11-24 06:56:35 51°15.523 2°48.621 269.1 12.1 267 12
2005-11-24 06:56:40 51°15.522 2°48.594 269.2 12.1 267 11.9
2005-11-24 06:56:44 51°15.522 2°48.573 269.6 12.2 267 11.9
2005-11-24 06:56:50 51°15.521 2°48.541 269.5 12.1 267 11.9
2005-11-24 06:56:55 51°15.52 2°48.515 269.3 12.1 267 11.9
2005-11-24 06:57:00 51°15.519 2°48.488 269.2 12.1 267 12
2005-11-24 06:57:05 51°15.518 2°48.461 269.1 12.2 266 11.9
2005-11-24 06:57:10 51°15.517 2°48.435 269 12.1 267 11.9
2005-11-24 06:57:15 51°15.516 2°48.408 269 12.1 266 11.9
2005-11-24 06:57:20 51°15.515 2°48.381 268.9 12.1 266 12
2005-11-24 06:57:25 51°15.514 2°48.355 268.6 12.1 267 12
2005-11-24 06:57:30 51°15.513 2°48.328 268.9 12.1 266 12
2005-11-24 06:57:35 51°15.512 2°48.301 269 12.1 267 11.9
2005-11-24 06:57:40 51°15.511 2°48.274 269.3 12.1 267 12
2005-11-24 06:57:44 51°15.51 2°48.253 269.7 12.1 267 11.9
2005-11-24 06:57:50 51°15.509 2°48.221 269.6 12.1 267 12
2005-11-24 06:57:55 51°15.508 2°48.194 269.2 12.1 266 11.9
2005-11-24 06:58:00 51°15.507 2°48.168 269.1 12.1 267 12.1
2005-11-24 06:58:05 51°15.506 2°48.141 269.1 12.1 266 12.1
2005-11-24 06:58:10 51°15.505 2°48.114 268.8 12.1 267 12.1
2005-11-24 06:58:15 51°15.504 2°48.087 268.7 12.1 267 12.1
2005-11-24 06:58:20 51°15.503 2°48.06 268.7 12.2 267 12.2
2005-11-24 06:58:25 51°15.502 2°48.033 269.1 12.1 267 12.2
2005-11-24 06:58:30 51°15.501 2°48.007 269.1 12.2 266 12.2
2005-11-24 06:58:35 51°15.501 2°47.98 269.2 12.1 267 12.3
2005-11-24 06:58:40 51°15.5 2°47.953 269.3 12.1 266 12.2
2005-11-24 06:58:44 51°15.499 2°47.932 269.3 12.2 267 12.3
2005-11-24 06:58:50 51°15.498 2°47.9 269.5 12.2 266 12.3
2005-11-24 06:58:55 51°15.497 2°47.873 269.4 12.2 267 12.4
2005-11-24 06:59:00 51°15.496 2°47.846 269.7 12.1 267 12.5
2005-11-24 06:59:05 51°15.495 2°47.819 270 12.1 267 12.6
2005-11-24 06:59:10 51°15.494 2°47.793 269.7 12.1 266 12.5
2005-11-24 06:59:15 51°15.494 2°47.766 269.5 12.1 266 12.6
2005-11-24 06:59:20 51°15.493 2°47.739 269.6 12.1 267 12.8
2005-11-24 06:59:25 51°15.492 2°47.712 269.7 12.1 267 12.8
2005-11-24 06:59:30 51°15.491 2°47.686 269.6 12.1 267 12.7
2005-11-24 06:59:35 51°15.49 2°47.659 269.5 12.1 267 12.9
2005-11-24 06:59:40 51°15.49 2°47.632 269.9 12.1 267 12.9
2005-11-24 06:59:45 51°15.489 2°47.606 269.8 12.1 268 13
2005-11-24 06:59:50 51°15.488 2°47.579 269.5 12.1 267 13
2005-11-24 06:59:55 51°15.487 2°47.552 269.2 12.1 267 13.2
2005-11-24 07:00:00 51°15.486 2°47.526 269.2 12.1 267 13.2
2005-11-24 07:00:05 51°15.486 2°47.499 269.4 12.1 268 13.3
2005-11-24 07:00:10 51°15.485 2°47.472 269.7 12.1 267 13.3
2005-11-24 07:00:15 51°15.484 2°47.446 269.5 12.1 267 13.3
2005-11-24 07:00:20 51°15.483 2°47.419 269.2 12 266 13.3
2005-11-24 07:00:25 51°15.482 2°47.393 269 12 267 13.6
2005-11-24 07:00:30 51°15.481 2°47.366 268.5 12.1 266 13.5
2005-11-24 07:00:35 51°15.48 2°47.34 268.6 12 267 13.7
2005-11-24 07:00:40 51°15.479 2°47.313 269.1 12 267 13.9
2005-11-24 07:00:44 51°15.479 2°47.292 269.2 12.1 268 13.9
2005-11-24 07:00:50 51°15.478 2°47.26 269.3 12 267 14
2005-11-24 07:00:55 51°15.477 2°47.234 269.4 12 268 14.1
2005-11-24 07:01:00 51°15.477 2°47.207 269.4 12 267 14.2
2005-11-24 07:01:05 51°15.476 2°47.181 269.3 12 267 14.3
2005-11-24 07:01:10 51°15.475 2°47.154 269.2 12 267 14.4
2005-11-24 07:01:15 51°15.474 2°47.128 269.1 12 267 14.6
2005-11-24 07:01:20 51°15.473 2°47.101 268.6 12 266 14.6
2005-11-24 07:01:25 51°15.472 2°47.075 268.6 12 266 14.8
2005-11-24 07:01:30 51°15.471 2°47.049 268.5 12 266 14.9
2005-11-24 07:01:35 51°15.469 2°47.022 268.1 12 266 14.9
2005-11-24 07:01:40 51°15.468 2°46.995 268.5 11.9 267 15
2005-11-24 07:01:44 51°15.468 2°46.974 268.7 12 267 15.1
2005-11-24 07:01:50 51°15.467 2°46.943 269.2 12 267 15.2
2005-11-24 07:01:55 51°15.466 2°46.916 269.6 12 267 15.3
2005-11-24 07:02:00 51°15.465 2°46.89 269.8 11.9 267 15.4
2005-11-24 07:02:05 51°15.465 2°46.864 269.6 11.9 267 15.4
2005-11-24 07:02:10 51°15.464 2°46.838 269.5 11.9 267 15.6
2005-11-24 07:02:15 51°15.463 2°46.811 269.4 11.9 267 15.7
2005-11-24 07:02:20 51°15.461 2°46.785 268.7 11.9 265 15.7
2005-11-24 07:02:25 51°15.46 2°46.759 267.5 11.9 265 15.8
2005-11-24 07:02:30 51°15.458 2°46.733 266.8 11.9 264 15.9
2005-11-24 07:02:35 51°15.456 2°46.707 266.3 11.9 264 16
2005-11-24 07:02:40 51°15.454 2°46.681 265.8 11.8 263 16
2005-11-24 07:02:45 51°15.453 2°46.655 265.6 11.9 264 16.1
2005-11-24 07:02:50 51°15.451 2°46.629 265.7 11.9 264 16.1
2005-11-24 07:02:55 51°15.449 2°46.602 266 11.9 264 16.2
2005-11-24 07:03:00 51°15.447 2°46.577 266.1 11.9 264 16.3
2005-11-24 07:03:05 51°15.445 2°46.55 266.3 11.9 264 16.2
2005-11-24 07:03:10 51°15.444 2°46.524 266.3 11.9 264 16.4
2005-11-24 07:03:15 51°15.442 2°46.499 266.6 11.8 265 16.4
2005-11-24 07:03:20 51°15.441 2°46.472 266.5 11.8 264 16.4
2005-11-24 07:03:25 51°15.439 2°46.446 266.5 11.8 264 16.5
2005-11-24 07:03:30 51°15.437 2°46.42 266.3 11.9 264 16.5
2005-11-24 07:03:35 51°15.435 2°46.394 266.4 11.9 265 16.6
2005-11-24 07:03:40 51°15.434 2°46.368 266.1 11.9 264 16.6
2005-11-24 07:03:45 51°15.432 2°46.342 266.5 11.8 265 16.6
2005-11-24 07:03:50 51°15.43 2°46.316 266.3 11.9 263 16.8
2005-11-24 07:03:55 51°15.429 2°46.289 266.2 11.9 264 16.8
2005-11-24 07:04:00 51°15.427 2°46.263 266.3 11.9 263 16.8
2005-11-24 07:04:05 51°15.425 2°46.237 266.1 11.9 264 16.8
2005-11-24 07:04:10 51°15.423 2°46.211 266.1 11.9 263 16.9
2005-11-24 07:04:15 51°15.422 2°46.185 266 11.9 264 16.9
2005-11-24 07:04:20 51°15.42 2°46.159 265.9 11.9 263 16.9
2005-11-24 07:04:25 51°15.418 2°46.133 265.9 11.9 264 17
2005-11-24 07:04:30 51°15.416 2°46.107 266.3 11.9 264 17
2005-11-24 07:04:35 51°15.415 2°46.08 266.3 11.9 264 17.1
2005-11-24 07:04:40 51°15.413 2°46.054 266.5 11.9 264 17.1
2005-11-24 07:04:45 51°15.412 2°46.028 266.6 11.9 264 17.2
2005-11-24 07:04:50 51°15.41 2°46.002 266.3 11.9 264 17.4
2005-11-24 07:04:55 51°15.408 2°45.975 266.3 11.9 264 17.4
2005-11-24 07:05:00 51°15.406 2°45.949 266 11.9 264 17.5
2005-11-24 07:05:05 51°15.404 2°45.923 266 11.9 264 17.6
2005-11-24 07:05:10 51°15.402 2°45.897 265.8 11.9 264 17.7
2005-11-24 07:05:15 51°15.401 2°45.871 265.4 11.9 263 17.6
2005-11-24 07:05:20 51°15.399 2°45.844 265.6 12 264 17.7
2005-11-24 07:05:25 51°15.397 2°45.818 265.6 11.9 263 17.8
2005-11-24 07:05:30 51°15.395 2°45.792 265.9 11.9 264 17.9
2005-11-24 07:05:35 51°15.394 2°45.766 266 11.9 264 18
2005-11-24 07:05:40 51°15.392 2°45.74 266.3 11.9 264 18.1
2005-11-24 07:05:45 51°15.39 2°45.714 266.4 11.8 264 18.2
2005-11-24 07:05:50 51°15.389 2°45.688 266.2 11.9 264 18.4
2005-11-24 07:05:55 51°15.387 2°45.662 266 11.9 264 18.2
2005-11-24 07:06:00 51°15.385 2°45.636 266.3 11.9 264 18.1
2005-11-24 07:06:05 51°15.384 2°45.61 266.3 11.9 264 18.3
2005-11-24 07:06:10 51°15.382 2°45.584 266.6 11.8 264 18.5
2005-11-24 07:06:15 51°15.381 2°45.558 266.4 11.9 264 18.6
2005-11-24 07:06:20 51°15.379 2°45.531 266.7 11.8 265 18.6
2005-11-24 07:06:25 51°15.378 2°45.505 266.4 11.9 264 18.8
2005-11-24 07:06:30 51°15.376 2°45.479 266.4 11.9 265 18.8
2005-11-24 07:06:35 51°15.375 2°45.453 266.5 11.9 265 18.9
2005-11-24 07:06:40 51°15.373 2°45.427 266.5 11.9 265 18.9
2005-11-24 07:06:44 51°15.372 2°45.406 266.4 11.9 264 18.9
2005-11-24 07:06:50 51°15.37 2°45.375 266.3 11.9 265 19
2005-11-24 07:06:55 51°15.368 2°45.348 266.3 11.9 264 19.2
2005-11-24 07:07:00 51°15.367 2°45.322 266.2 12 265 19.2
2005-11-24 07:07:05 51°15.366 2°45.296 266.4 12 265 19.2
2005-11-24 07:07:10 51°15.364 2°45.27 266.5 11.9 264 19.4
2005-11-24 07:07:15 51°15.362 2°45.243 266.3 11.9 265 19.4
2005-11-24 07:07:20 51°15.361 2°45.217 266.3 11.9 265 19.5
2005-11-24 07:07:25 51°15.359 2°45.191 266.3 12 264 19.6
2005-11-24 07:07:30 51°15.358 2°45.164 266.2 12 264 19.5
2005-11-24 07:07:35 51°15.356 2°45.138 266.3 12 265 19.6
2005-11-24 07:07:40 51°15.355 2°45.112 266.1 12 264 19.6
2005-11-24 07:07:44 51°15.354 2°45.09 266.3 12 265 19.6
2005-11-24 07:07:50 51°15.352 2°45.059 266.3 12 265 19.6
2005-11-24 07:07:55 51°15.35 2°45.032 266.3 12 265 19.6
2005-11-24 07:08:00 51°15.349 2°45.006 266.2 12 265 19.7
2005-11-24 07:08:05 51°15.347 2°44.98 266.2 11.9 265 19.7
2005-11-24 07:08:10 51°15.346 2°44.953 265.8 12 265 19.7
2005-11-24 07:08:15 51°15.344 2°44.927 266.1 12 265 19.7
2005-11-24 07:08:20 51°15.343 2°44.901 266.3 12 265 19.7
2005-11-24 07:08:25 51°15.342 2°44.874 266.3 12 265 19.6
2005-11-24 07:08:30 51°15.34 2°44.848 266.3 12 265 19.6
2005-11-24 07:08:35 51°15.338 2°44.821 266 12.1 264 19.5
2005-11-24 07:08:40 51°15.337 2°44.795 265.8 12 265 19.4
2005-11-24 07:08:45 51°15.335 2°44.768 266 12 265 19.3
2005-11-24 07:08:50 51°15.334 2°44.742 265.9 12 265 19.3
2005-11-24 07:08:55 51°15.333 2°44.715 266 12 265 19.2
2005-11-24 07:09:00 51°15.331 2°44.689 266.2 12 265 19.1
2005-11-24 07:09:05 51°15.33 2°44.663 265.9 12 265 19
2005-11-24 07:09:10 51°15.328 2°44.636 265.9 12 265 19
2005-11-24 07:09:15 51°15.327 2°44.61 265.6 12 265 18.9
2005-11-24 07:09:20 51°15.326 2°44.583 267 12 267 18.7
2005-11-24 07:09:25 51°15.326 2°44.556 268 12 267 18.6
2005-11-24 07:09:30 51°15.326 2°44.53 269.1 12 269 18.5
2005-11-24 07:09:35 51°15.325 2°44.503 269.3 12 269 18.5
2005-11-24 07:09:40 51°15.325 2°44.476 269.4 12.1 269 18.3
2005-11-24 07:09:45 51°15.325 2°44.45 269.6 12.1 268 18.1
2005-11-24 07:09:50 51°15.324 2°44.423 269.5 12 268 17.9
2005-11-24 07:09:55 51°15.324 2°44.396 269.3 12 269 17.8
2005-11-24 07:10:00 51°15.324 2°44.37 269.2 12 269 17.7
2005-11-24 07:10:05 51°15.323 2°44.343 269.2 12.1 269 17.4
2005-11-24 07:10:10 51°15.323 2°44.316 269.5 12 269 17.3
2005-11-24 07:10:15 51°15.323 2°44.29 269.6 12.1 269 17.1
2005-11-24 07:10:20 51°15.323 2°44.263 269.4 12 269 16.8
2005-11-24 07:10:25 51°15.322 2°44.236 269.3 12 269 16.6
2005-11-24 07:10:30 51°15.322 2°44.21 269.4 12 269 16.5
2005-11-24 07:10:35 51°15.322 2°44.183 269.5 12 269 16.3
2005-11-24 07:10:40 51°15.321 2°44.156 269.2 12.1 269 16.1
2005-11-24 07:10:44 51°15.321 2°44.135 269.3 12.1 269 15.5
2005-11-24 07:10:50 51°15.321 2°44.103 269.5 12.1 269 15.1
2005-11-24 07:10:55 51°15.321 2°44.076 269.7 12 269 15.3
2005-11-24 07:11:00 51°15.321 2°44.05 269.4 12.1 269 15.4
2005-11-24 07:11:05 51°15.321 2°44.023 269.7 12 270 13.7
2005-11-24 07:11:10 51°15.321 2°43.997 269.7 12 269 14.7
2005-11-24 07:11:15 51°15.32 2°43.97 269.6 12 270 15
2005-11-24 07:11:20 51°15.32 2°43.944 269.2 12.1 269 15
2005-11-24 07:11:25 51°15.32 2°43.917 268.8 12.1 269 14.7
2005-11-24 07:11:30 51°15.319 2°43.89 268.8 12.1 268 14.7
2005-11-24 07:11:35 51°15.319 2°43.863 268.7 12.1 270 14.6
2005-11-24 07:11:40 51°15.319 2°43.837 269.2 12 269 14.6
2005-11-24 07:11:44 51°15.319 2°43.815 269.3 12.1 270 14.6
2005-11-24 07:11:50 51°15.319 2°43.784 269.4 12.1 269 14.6
2005-11-24 07:11:55 51°15.319 2°43.757 269.6 12.1 270 14.5
2005-11-24 07:12:00 51°15.318 2°43.731 269.4 12 269 14.5
2005-11-24 07:12:05 51°15.318 2°43.704 269.3 12 269 14.5
2005-11-24 07:12:10 51°15.318 2°43.677 269.1 12.1 269 14.5
2005-11-24 07:12:15 51°15.318 2°43.651 269.2 12.1 269 14.6
2005-11-24 07:12:20 51°15.318 2°43.624 269.2 12.1 269 14.5
2005-11-24 07:12:25 51°15.318 2°43.598 269.4 12 270 14.5
2005-11-24 07:12:30 51°15.317 2°43.571 269.4 12 269 14.6
2005-11-24 07:12:35 51°15.317 2°43.544 269.1 12 269 14.6
2005-11-24 07:12:40 51°15.317 2°43.518 269.2 12 270 14.6
2005-11-24 07:12:45 51°15.317 2°43.491 269.3 12 269 14.8
2005-11-24 07:12:50 51°15.317 2°43.464 269.4 12 270 14.7
2005-11-24 07:12:55 51°15.317 2°43.438 269.4 12 269 14.9
2005-11-24 07:13:00 51°15.316 2°43.411 269.5 12.1 269 14.8
2005-11-24 07:13:05 51°15.316 2°43.385 269.3 12.1 269 14.8
2005-11-24 07:13:10 51°15.316 2°43.358 269.4 12.1 269 14.8
2005-11-24 07:13:15 51°15.316 2°43.332 269.2 12 269 14.3
2005-11-24 07:13:20 51°15.316 2°43.305 269.2 12 269 12.7
2005-11-24 07:13:25 51°15.315 2°43.279 269.3 12 270 14
2005-11-24 07:13:30 51°15.316 2°43.252 269.8 12 270 14.5
2005-11-24 07:13:35 51°15.315 2°43.226 269.9 12 270 14.7
2005-11-24 07:13:40 51°15.315 2°43.199 269.7 12.1 270 14.7
2005-11-24 07:13:45 51°15.315 2°43.172 269.4 12.1 269 14.7
2005-11-24 07:13:50 51°15.315 2°43.146 268.7 12.1 269 14.9
2005-11-24 07:13:55 51°15.314 2°43.119 268.6 12 268 14.9
2005-11-24 07:14:00 51°15.314 2°43.092 268.5 12.1 269 14.9
2005-11-24 07:14:05 51°15.313 2°43.066 268.7 12.1 269 14.9
2005-11-24 07:14:10 51°15.313 2°43.039 269 12.1 269 15
2005-11-24 07:14:15 51°15.313 2°43.013 269.7 12.1 271 14.9
2005-11-24 07:14:20 51°15.314 2°42.986 271.5 12.1 273 14.7
2005-11-24 07:14:25 51°15.315 2°42.959 272.6 12.1 273 14.6
2005-11-24 07:14:30 51°15.317 2°42.932 273.8 12.1 275 13.5
2005-11-24 07:14:35 51°15.319 2°42.906 274.4 12.1 275 13.5
2005-11-24 07:14:40 51°15.32 2°42.879 275 12.1 276 13.5
2005-11-24 07:14:44 51°15.321 2°42.858 275.2 12.1 275 13
2005-11-24 07:14:50 51°15.323 2°42.826 275 12.1 275 14.1
2005-11-24 07:14:55 51°15.324 2°42.799 274.5 12.1 274 14.3
2005-11-24 07:15:00 51°15.326 2°42.772 274.1 12.1 274 14.3
2005-11-24 07:15:05 51°15.327 2°42.746 274 12.1 274 13.9
2005-11-24 07:15:10 51°15.328 2°42.719 274.1 12.1 275 12.9
2005-11-24 07:15:15 51°15.33 2°42.692 274.4 12.1 275 13.4
2005-11-24 07:15:20 51°15.331 2°42.666 274.8 12.1 275 13.3
2005-11-24 07:15:25 51°15.332 2°42.639 274.7 12.1 274 13
2005-11-24 07:15:30 51°15.333 2°42.612 274.3 12.1 274 12.4
2005-11-24 07:15:35 51°15.335 2°42.586 274.2 12.1 274 13.3
2005-11-24 07:15:40 51°15.336 2°42.559 274.2 12.1 275 13.6
2005-11-24 07:15:44 51°15.337 2°42.538 274.4 12.1 275 13.5
2005-11-24 07:15:50 51°15.339 2°42.506 274.8 12.1 275 13.3
2005-11-24 07:15:55 51°15.34 2°42.479 274.6 12.1 274 13
2005-11-24 07:16:00 51°15.341 2°42.453 274.8 12.1 274 12.5
2005-11-24 07:16:05 51°15.343 2°42.426 274.4 12 274 11.7
2005-11-24 07:16:10 51°15.344 2°42.399 274.3 12.1 274 12.9
2005-11-24 07:16:15 51°15.345 2°42.373 274.2 12.1 274 13.2
2005-11-24 07:16:20 51°15.346 2°42.346 274 12.1 274 13.1
2005-11-24 07:16:25 51°15.347 2°42.319 273.8 12.2 273 13
2005-11-24 07:16:30 51°15.348 2°42.292 274 12.2 274 12.4
2005-11-24 07:16:35 51°15.35 2°42.266 274.3 12.1 274 11.9
2005-11-24 07:16:40 51°15.351 2°42.239 274.3 12.1 275 10.9
2005-11-24 07:16:45 51°15.353 2°42.212 274.4 12.1 274 12.3
2005-11-24 07:16:50 51°15.354 2°42.186 274.9 12.2 275 12.8
2005-11-24 07:16:55 51°15.355 2°42.159 275 12.2 275 12.2
2005-11-24 07:17:00 51°15.357 2°42.132 274.7 12.2 275 11
2005-11-24 07:17:05 51°15.358 2°42.105 274.5 12.1 275 12.5
2005-11-24 07:17:10 51°15.36 2°42.079 274.4 12.1 275 12.1
2005-11-24 07:17:15 51°15.361 2°42.052 274.3 12.1 274 11.9
2005-11-24 07:17:20 51°15.362 2°42.025 274.5 12.2 274 12
2005-11-24 07:17:25 51°15.364 2°41.998 274.3 12.2 274 12
2005-11-24 07:17:30 51°15.365 2°41.972 274.2 12.2 274 12
2005-11-24 07:17:35 51°15.367 2°41.945 274.3 12.2 275 12
2005-11-24 07:17:40 51°15.368 2°41.918 274.7 12.2 275 11.9
2005-11-24 07:17:44 51°15.369 2°41.896 274.5 12.3 275 11.6
2005-11-24 07:17:50 51°15.37 2°41.864 274.3 12.2 274 11.8
2005-11-24 07:17:55 51°15.372 2°41.837 274.2 12.2 275 12
2005-11-24 07:18:00 51°15.373 2°41.81 274.3 12.2 274 12.2
2005-11-24 07:18:05 51°15.374 2°41.783 274.3 12.2 274 12.4
2005-11-24 07:18:10 51°15.375 2°41.756 274.2 12.3 274 12.5
2005-11-24 07:18:15 51°15.377 2°41.729 274.1 12.3 274 12.6
2005-11-24 07:18:20 51°15.378 2°41.702 274 12.3 275 12.5
2005-11-24 07:18:25 51°15.379 2°41.675 274.2 12.3 274 12.4
2005-11-24 07:18:30 51°15.38 2°41.648 274.2 12.2 274 12.3
2005-11-24 07:18:35 51°15.382 2°41.621 274.1 12.2 274 12.5
2005-11-24 07:18:40 51°15.383 2°41.594 274.1 12.2 274 12.3
2005-11-24 07:18:45 51°15.384 2°41.567 274.2 12.3 274 12.5
2005-11-24 07:18:50 51°15.386 2°41.54 274.5 12.3 275 12.4
2005-11-24 07:18:55 51°15.387 2°41.513 274.9 12.3 275 12.4
2005-11-24 07:19:00 51°15.389 2°41.486 274.6 12.2 275 12.4
2005-11-24 07:19:05 51°15.39 2°41.459 274.7 12.3 275 12.5
2005-11-24 07:19:10 51°15.392 2°41.432 274.8 12.3 275 12.2
2005-11-24 07:19:15 51°15.393 2°41.405 274.8 12.3 275 12.1
2005-11-24 07:19:20 51°15.394 2°41.378 274.3 12.2 274 11.9
2005-11-24 07:19:25 51°15.395 2°41.351 274.3 12.2 274 12
2005-11-24 07:19:30 51°15.397 2°41.324 273.8 12.2 274 12.1
2005-11-24 07:19:35 51°15.398 2°41.298 273.9 12.2 274 12.2
2005-11-24 07:19:40 51°15.399 2°41.271 273.7 12.3 274 12.4
2005-11-24 07:19:45 51°15.401 2°41.245 274 12.1 275 12.3
2005-11-24 07:19:50 51°15.402 2°41.221 274.4 11 275 12.4
2005-11-24 07:19:55 51°15.403 2°41.199 274.3 10.6 275 12.4
2005-11-24 07:20:00 51°15.405 2°41.18 274.8 9.2 276 12.4
2005-11-24 07:20:05 51°15.406 2°41.162 275.2 8.5 278 12.4
2005-11-24 07:20:10 51°15.408 2°41.146 276.4 7.6 280 12.8
2005-11-24 07:20:15 51°15.411 2°41.131 278.2 7.4 281 12.7
2005-11-24 07:20:20 51°15.413 2°41.118 280.3 6.4 285 13
2005-11-24 07:20:25 51°15.416 2°41.106 282.3 6 287 12.9
2005-11-24 07:20:30 51°15.419 2°41.095 284.3 5.6 290 13.3
2005-11-24 07:20:35 51°15.422 2°41.084 286.2 5.4 291 12.8
2005-11-24 07:20:40 51°15.425 2°41.075 288.1 5 296 13.1
2005-11-24 07:20:45 51°15.428 2°41.066 290.4 4.8 298 13
2005-11-24 07:20:50 51°15.431 2°41.057 292.5 4.5 302 13
2005-11-24 07:20:55 51°15.435 2°41.049 294.6 4.3 305 13.1
2005-11-24 07:21:00 51°15.438 2°41.042 296.7 4.1 307 13.2
2005-11-24 07:21:05 51°15.442 2°41.035 298.3 4 309 13.3
2005-11-24 07:21:10 51°15.445 2°41.03 300.1 3.9 313 13.2
2005-11-24 07:21:15 51°15.449 2°41.024 301.7 3.6 316 12.9
2005-11-24 07:21:20 51°15.453 2°41.019 303.4 3.4 320 12.8
2005-11-24 07:21:25 51°15.456 2°41.016 305.2 3.1 323 12.7
2005-11-24 07:21:30 51°15.459 2°41.013 307.1 2.6 328 12.8
2005-11-24 07:21:35 51°15.462 2°41.011 308.6 2.2 335 12.7
2005-11-24 07:21:40 51°15.464 2°41.01 309.3 1.8 343 12.8
2005-11-24 07:21:44 51°15.465 2°41.01 309 1.5 356 12.8
2005-11-24 07:21:50 51°15.468 2°41.011 308.4 1.3 7 12.8
2005-11-24 07:21:55 51°15.469 2°41.013 308.3 1.3 28 13
2005-11-24 07:22:00 51°15.47 2°41.014 309.1 1.2 37 13.3
2005-11-24 07:22:05 51°15.472 2°41.016 310.9 1.2 36 13.1
2005-11-24 07:22:10 51°15.473 2°41.018 313.4 1.3 37 13
2005-11-24 07:22:15 51°15.475 2°41.019 315.8 1.3 34 13
2005-11-24 07:22:20 51°15.476 2°41.021 318 1.4 37 12.9
2005-11-24 07:22:25 51°15.478 2°41.023 320.3 1.3 36 12.7
2005-11-24 07:22:30 51°15.479 2°41.025 322.9 1.4 38 12.9
2005-11-24 07:22:35 51°15.481 2°41.026 324.7 1.3 37 13.2
2005-11-24 07:22:40 51°15.482 2°41.028 327.3 1.4 38 13.2
2005-11-24 07:22:44 51°15.483 2°41.03 329.5 1.4 36 13
2005-11-24 07:22:50 51°15.485 2°41.032 331.2 1.4 39 12.8
2005-11-24 07:22:55 51°15.487 2°41.034 333.2 1.4 38 12.8
2005-11-24 07:23:00 51°15.489 2°41.036 335.2 1.4 40 12.9
2005-11-24 07:23:04 51°15.49 2°41.037 336.8 1.3 37 13.3
2005-11-24 07:23:10 51°15.492 2°41.04 338.3 1.5 40 13.2
2005-11-24 07:23:15 51°15.493 2°41.041 339.6 1.4 38 13
2005-11-24 07:23:20 51°15.495 2°41.043 340.7 1.4 40 12.9
2005-11-24 07:23:24 51°15.496 2°41.045 341.8 1.4 38 12.9
2005-11-24 07:23:30 51°15.498 2°41.047 342.6 1.4 39 12.9
2005-11-24 07:23:35 51°15.499 2°41.049 343.4 1.4 38 13.1
2005-11-24 07:23:40 51°15.501 2°41.051 344 1.4 39 13.4
2005-11-24 07:23:44 51°15.502 2°41.052 344.5 1.4 38 13.3
2005-11-24 07:23:50 51°15.504 2°41.055 344.9 1.4 40 13.1
2005-11-24 07:23:55 51°15.506 2°41.057 345.1 1.4 37 13.1
2005-11-24 07:24:00 51°15.507 2°41.059 345.4 1.5 40 12.9
2005-11-24 07:24:04 51°15.508 2°41.06 345.6 1.4 40 12.9
2005-11-24 07:24:10 51°15.51 2°41.063 345.7 1.5 43 13.4
2005-11-24 07:24:15 51°15.512 2°41.065 345.8 1.5 42 13.4
2005-11-24 07:24:20 51°15.513 2°41.067 346 1.4 42 13.2
2005-11-24 07:24:24 51°15.514 2°41.069 346 1.4 41 13
2005-11-24 07:24:30 51°15.516 2°41.071 345.9 1.5 41 13
2005-11-24 07:24:35 51°15.518 2°41.073 345.7 1.4 40 13
2005-11-24 07:24:40 51°15.519 2°41.076 345.8 1.4 40 13.2
2005-11-24 07:24:45 51°15.521 2°41.078 346.1 1.4 41 13.5
2005-11-24 07:24:50 51°15.522 2°41.08 345.9 1.4 43 13.3
2005-11-24 07:24:55 51°15.524 2°41.082 345.7 1.4 43 13.3
2005-11-24 07:25:00 51°15.526 2°41.084 345.3 1.6 29 13.1
2005-11-24 07:25:05 51°15.528 2°41.085 345.4 1.8 21 12.9
2005-11-24 07:25:10 51°15.532 2°41.086 345.5 2.3 10 13
2005-11-24 07:25:15 51°15.537 2°41.085 344 3.3 358 13.4
2005-11-24 07:25:20 51°15.542 2°41.084 340.7 3.9 351 13.4
2005-11-24 07:25:25 51°15.548 2°41.08 335.1 4.3 342 13.3
2005-11-24 07:25:30 51°15.554 2°41.074 329 4.9 333 13.3
2005-11-24 07:25:35 51°15.56 2°41.067 322.6 5.5 323 13.4
2005-11-24 07:25:40 51°15.566 2°41.058 316 5.8 318 13.6
2005-11-24 07:25:45 51°15.572 2°41.047 309.4 6.1 311 13.2
2005-11-24 07:25:50 51°15.576 2°41.034 302.8 6.5 303 13
2005-11-24 07:25:55 51°15.58 2°41.021 296.6 6.8 295 13.5
2005-11-24 07:26:00 51°15.583 2°41.006 290.2 7 289 13.3
2005-11-24 07:26:05 51°15.585 2°40.989 283.5 7.4 284 13.7
2005-11-24 07:26:10 51°15.586 2°40.971 278.2 8 277 13.4
2005-11-24 07:26:15 51°15.587 2°40.951 275.4 8.4 276 13.7
2005-11-24 07:26:20 51°15.588 2°40.929 272.6 9.5 271 13.4
2005-11-24 07:26:25 51°15.588 2°40.906 271.4 10.1 273 13.6
2005-11-24 07:26:30 51°15.589 2°40.883 272.2 10.6 273 14
2005-11-24 07:26:35 51°15.59 2°40.858 273.9 10.8 274 14.2
2005-11-24 07:26:40 51°15.591 2°40.833 273.4 11.2 272 14.3
2005-11-24 07:26:45 51°15.59 2°40.808 271.4 11.4 270 14.1
2005-11-24 07:26:50 51°15.589 2°40.782 269 11.6 268 14.3
2005-11-24 07:26:55 51°15.588 2°40.756 267.7 11.7 267 14.3
2005-11-24 07:27:00 51°15.587 2°40.729 266.9 11.9 265 14.4
2005-11-24 07:27:05 51°15.585 2°40.703 265.6 11.9 265 14.5
2005-11-24 07:27:10 51°15.583 2°40.677 265.3 11.9 264 14.8
2005-11-24 07:27:15 51°15.582 2°40.651 264.9 12 264 14.8
2005-11-24 07:27:20 51°15.579 2°40.624 264.1 12 263 15.1
2005-11-24 07:27:24 51°15.578 2°40.603 263.9 12 264 15.3
2005-11-24 07:27:30 51°15.576 2°40.571 264.3 12 264 15.6
2005-11-24 07:27:35 51°15.574 2°40.545 264.9 12.1 264 15.6
2005-11-24 07:27:40 51°15.573 2°40.518 264.9 12.1 264 15.9
2005-11-24 07:27:45 51°15.571 2°40.492 265 12.1 264 16.2
2005-11-24 07:27:50 51°15.57 2°40.465 265.6 12.1 265 16.5
2005-11-24 07:27:55 51°15.569 2°40.439 265.6 12.1 265 16.6
2005-11-24 07:28:00 51°15.567 2°40.412 265.5 12.1 265 16.7
2005-11-24 07:28:05 51°15.565 2°40.386 265.2 12.1 264 16.7
2005-11-24 07:28:10 51°15.564 2°40.359 265 12.1 264 16.9
2005-11-24 07:28:15 51°15.562 2°40.332 265 12.1 265 17.3
2005-11-24 07:28:20 51°15.56 2°40.306 265.5 12.1 264 17.3
2005-11-24 07:28:25 51°15.559 2°40.279 265.2 12.2 264 17.5
2005-11-24 07:28:30 51°15.558 2°40.252 265.3 12.1 265 17.7
2005-11-24 07:28:35 51°15.556 2°40.225 265.6 12.1 265 17.8
2005-11-24 07:28:40 51°15.555 2°40.199 265.6 12.1 265 18
2005-11-24 07:28:45 51°15.553 2°40.172 265.6 12.1 265 18.2
2005-11-24 07:28:50 51°15.552 2°40.146 265.6 12 265 18.3
2005-11-24 07:28:55 51°15.55 2°40.119 265.4 12 265 18.5
2005-11-24 07:29:00 51°15.549 2°40.092 265.6 12.1 265 18.6
2005-11-24 07:29:05 51°15.548 2°40.066 265.6 12.1 266 18.7
2005-11-24 07:29:10 51°15.547 2°40.039 265.8 12.1 265 18.9
2005-11-24 07:29:15 51°15.545 2°40.013 265.8 12 265 18.9